Dubai, United Arab Emirates
Current Conditions -  °F | °C
As of 10:00 PM on Thursday 30 Oct 2014 (Local Time) from OMDB Reporting Station
Clear Clear  
Wind Chill: 30°   Ceiling: Unl
Heat Index: 30°   Visibility: 6mi
Dew Point: 10°   Wind: 7mph
Humidity: 29%   Direction: 70°ENE
Pressure: 29.85"   Gusts: NA
Location:  25.27°N, 55.33°E
Report Text: OMDB 301800Z 07006KT 040V100 CAVOK 30/10 Q1011 NOSIG
Loading
Personal Weather Stations






























Interactive Weather Map
Tropical Storm Tracking
New forecast layout! Learn more

10-Day Weather Forecast

Advertisements
Track Severe Weather on mobile